Weather History for KBKX - April, 2013

Change the Weather History Date:

Friday, April 5, 2013

  Actual Average (KPQN) Record (KPQN)
Temperature  
Mean Temperature 37 °F -  
Max Temperature 48 °F 47 °F - (-1)
Min Temperature 26 °F 29 °F - (-1)
Degree Days  
Heating Degree Days 28    
Moisture  
Dew Point 24 °F    
Average Humidity 62    
Maximum Humidity 80    
Minimum Humidity 46    
Precipitation  
Precipitation 0.00 in - - ()
Sea Level Pressure  
Sea Level Pressure 29.98 in    
Wind  
Wind Speed 13 mph (SSE)    
Max Wind Speed 28 mph    
Max Gust Speed 34 mph    
Visibility 10 miles    
Events      
Averages and records for this station are not official NWS values.
T = Trace of Precipitation, MM = Missing Value Source: NWS Daily Summary

Daily Weather History Graph

Daily Weather History Graph

Search for Another Location

Airport or City:

Trip Planner

Search our weather history database for the weather conditions in past years. The results will help you decide how hot, cold, wet, or windy it might be!

Date:

Astronomy

Apr. 05, 2013 Rise Set
Actual Time 7:00 AM CDT 7:59 PM CDT
Civil Twilight 6:31 AM CDT 8:29 PM CDT
Nautical Twilight 5:55 AM CDT 9:04 PM CDT
Astronomical Twilight 5:19 AM CDT 9:41 PM CDT
Moon 4:19 AM CDT (4/5) 3:15 PM CDT (4/5)
Length of Visible Light 13h 58m
Length of Day
12h 59m
Waning Crescent, 23% of the Moon is Illuminated
Apr 5
Waning Crescent
Apr 10
New
Apr 18
First Quarter
Apr 25
Full
May 2
Last Quarter

Hourly Weather History & Observations

Time (CDT) Temp. Windchill Dew Point Humidity Pressure Visibility Wind Dir Wind Speed Gust Speed Precip Events Conditions
12:15 AM 26.6 °F 18.2 °F 21.2 °F 80% 30.22 in 10.0 mi NNE 8.1 mph - N/A   Mostly Cloudy
12:35 AM 26.6 °F 20.0 °F 19.4 °F 74% 30.22 in 10.0 mi NNE 5.8 mph - N/A   Mostly Cloudy
12:55 AM 26.6 °F 20.0 °F 19.4 °F 74% 30.22 in 10.0 mi NNE 5.8 mph - N/A   Mostly Cloudy
1:15 AM 26.6 °F 20.0 °F 19.4 °F 74% 30.22 in 10.0 mi NNE 5.8 mph - N/A   Mostly Cloudy
1:35 AM 26.6 °F 21.2 °F 19.4 °F 74% 30.22 in 10.0 mi NNE 4.6 mph - N/A   Mostly Cloudy
1:55 AM 26.6 °F 21.2 °F 19.4 °F 74% 30.22 in 10.0 mi NNE 4.6 mph - N/A   Overcast
2:15 AM 26.6 °F 20.0 °F 19.4 °F 74% 30.21 in 10.0 mi NE 5.8 mph - N/A   Overcast
2:35 AM 26.6 °F 21.2 °F 21.2 °F 80% 30.21 in 10.0 mi NE 4.6 mph - N/A   Overcast
2:55 AM 26.6 °F 17.5 °F 19.4 °F 74% 30.20 in 10.0 mi ENE 9.2 mph - N/A   Overcast
3:15 AM 26.6 °F 17.5 °F 17.6 °F 69% 30.19 in 10.0 mi ENE 9.2 mph - N/A   Overcast
3:35 AM 26.6 °F 15.7 °F 17.6 °F 69% 30.18 in 10.0 mi ENE 12.7 mph - N/A   Overcast
3:55 AM 26.6 °F 19.1 °F 19.4 °F 74% 30.18 in 10.0 mi ENE 6.9 mph - N/A   Overcast
4:15 AM 26.6 °F 16.2 °F 17.6 °F 69% 30.17 in 10.0 mi ENE 11.5 mph - N/A   Overcast
4:35 AM 26.6 °F 17.5 °F 17.6 °F 69% 30.17 in 10.0 mi ENE 9.2 mph - N/A   Mostly Cloudy
4:55 AM 26.6 °F 17.5 °F 19.4 °F 74% 30.17 in 10.0 mi East 9.2 mph - N/A   Mostly Cloudy
5:15 AM 26.6 °F 17.5 °F 17.6 °F 69% 30.17 in 10.0 mi East 9.2 mph - N/A   Mostly Cloudy
5:35 AM 26.6 °F 16.2 °F 19.4 °F 74% 30.17 in 10.0 mi East 11.5 mph - N/A   Overcast
5:55 AM 26.6 °F 16.8 °F 19.4 °F 74% 30.16 in 10.0 mi East 10.4 mph - N/A   Overcast
6:15 AM 26.6 °F 18.2 °F 19.4 °F 74% 30.16 in 10.0 mi East 8.1 mph - N/A   Mostly Cloudy
6:35 AM 26.6 °F 18.2 °F 21.2 °F 80% 30.15 in 10.0 mi ESE 8.1 mph - N/A   Overcast
6:55 AM 26.6 °F 19.1 °F 19.4 °F 74% 30.16 in 10.0 mi ESE 6.9 mph - N/A   Mostly Cloudy
7:15 AM 28.4 °F 20.4 °F 19.4 °F 69% 30.15 in 10.0 mi ESE 8.1 mph - N/A   Mostly Cloudy
7:35 AM 28.4 °F 18.5 °F 19.4 °F 69% 30.15 in 10.0 mi ESE 11.5 mph 17.3 mph N/A   Mostly Cloudy
7:55 AM 28.4 °F 19.1 °F 21.2 °F 74% 30.16 in 10.0 mi ESE 10.4 mph 17.3 mph N/A   Overcast
8:15 AM 28.4 °F 19.1 °F 21.2 °F 74% 30.15 in 10.0 mi ESE 10.4 mph - N/A   Overcast
8:35 AM 28.4 °F 16.6 °F 21.2 °F 74% 30.15 in 10.0 mi SE 16.1 mph 21.9 mph N/A   Overcast
8:55 AM 28.4 °F 16.6 °F 21.2 °F 74% 30.14 in 10.0 mi SE 16.1 mph - N/A   Overcast
9:15 AM 30.2 °F 18.9 °F 21.2 °F 69% 30.12 in 10.0 mi SSE 16.1 mph 23.0 mph N/A   Mostly Cloudy
9:35 AM 30.2 °F 17.1 °F 21.2 °F 69% 30.11 in 10.0 mi SSE 21.9 mph 25.3 mph N/A   Overcast
9:55 AM 32.0 °F 20.1 °F 23.0 °F 69% 30.08 in 10.0 mi SSE 19.6 mph 25.3 mph N/A   Overcast
10:15 AM 33.8 °F 22.5 °F 21.2 °F 60% 30.07 in 10.0 mi SSE 19.6 mph 25.3 mph N/A   Mostly Cloudy
10:35 AM 33.8 °F 23.5 °F 21.2 °F 60% 30.08 in 10.0 mi SSE 16.1 mph 21.9 mph N/A   Mostly Cloudy
10:55 AM 35.6 °F 25.9 °F 21.2 °F 56% 30.09 in 10.0 mi South 16.1 mph 19.6 mph N/A   Mostly Cloudy
11:15 AM 35.6 °F 25.2 °F 21.2 °F 56% 30.08 in 10.0 mi South 18.4 mph 24.2 mph N/A   Overcast
11:35 AM 35.6 °F 24.5 °F 21.2 °F 56% 30.06 in 10.0 mi SSE 20.7 mph 26.5 mph N/A   Overcast
11:55 AM 37.4 °F 27.2 °F 23.0 °F 56% 30.06 in 10.0 mi South 19.6 mph 27.6 mph N/A   Overcast
12:15 PM 37.4 °F 26.1 °F 23.0 °F 56% 30.04 in 10.0 mi SSE 24.2 mph 28.8 mph N/A   Mostly Cloudy
12:35 PM 39.2 °F 28.5 °F 23.0 °F 52% 30.03 in 10.0 mi SSE 24.2 mph 28.8 mph N/A   Mostly Cloudy
12:55 PM 39.2 °F 29.6 °F 24.8 °F 56% 30.01 in 10.0 mi SSE 19.6 mph 28.8 mph N/A   Overcast
1:15 PM 41.0 °F 31.9 °F 24.8 °F 53% 29.99 in 10.0 mi South 19.6 mph 28.8 mph N/A   Overcast
1:35 PM 42.8 °F 32.9 °F 23.0 °F 46% 29.96 in 10.0 mi SSE 26.5 mph 33.4 mph N/A   Mostly Cloudy
1:55 PM 42.8 °F 32.7 °F 24.8 °F 49% 29.94 in 10.0 mi South 27.6 mph 34.5 mph N/A   Mostly Cloudy
2:15 PM 42.8 °F 32.7 °F 24.8 °F 49% 29.92 in 10.0 mi South 27.6 mph 34.5 mph N/A   Scattered Clouds
2:35 PM 42.8 °F 32.7 °F 23.0 °F 46% 29.89 in 10.0 mi SSE 27.6 mph 33.4 mph N/A   Mostly Cloudy
2:55 PM 42.8 °F 33.5 °F 24.8 °F 49% 29.88 in 10.0 mi SSE 23.0 mph 32.2 mph N/A   Overcast
3:15 PM 42.8 °F 33.3 °F 24.8 °F 49% 29.87 in 10.0 mi SSE 24.2 mph 31.1 mph N/A   Mostly Cloudy
3:35 PM 44.6 °F 35.7 °F 26.6 °F 49% 29.88 in 10.0 mi South 24.2 mph 32.2 mph N/A   Mostly Cloudy
3:55 PM 46.4 °F 38.7 °F 26.6 °F 46% 29.87 in 10.0 mi South 20.7 mph 26.5 mph N/A   Mostly Cloudy
4:15 PM 46.4 °F 38.3 °F 26.6 °F 46% 29.86 in 10.0 mi South 23.0 mph 29.9 mph N/A   Mostly Cloudy
4:35 PM 46.4 °F 37.7 °F 28.4 °F 50% 29.85 in 10.0 mi South 26.5 mph 31.1 mph N/A   Mostly Cloudy
4:55 PM 48.2 °F - 28.4 °F 46% 29.84 in 10.0 mi SSW 24.2 mph 28.8 mph N/A   Clear
5:15 PM 48.2 °F - 28.4 °F 46% 29.83 in 10.0 mi SSW 20.7 mph 28.8 mph N/A   Clear
5:35 PM 48.2 °F - 30.2 °F 50% 29.82 in 10.0 mi SSW 25.3 mph 29.9 mph N/A   Clear
5:55 PM 48.2 °F - 30.2 °F 50% 29.81 in 10.0 mi SSW 17.3 mph 28.8 mph N/A   Clear
6:15 PM 48.2 °F - 30.2 °F 50% 29.79 in 10.0 mi SSW 23.0 mph 31.1 mph N/A   Clear
6:35 PM 48.2 °F - 30.2 °F 50% 29.78 in 10.0 mi SSW 23.0 mph 31.1 mph N/A   Clear
6:55 PM 48.2 °F - 30.2 °F 50% 29.77 in 10.0 mi SSW 23.0 mph 28.8 mph N/A   Clear
7:15 PM 46.4 °F 39.2 °F 30.2 °F 53% 29.76 in 10.0 mi SSW 18.4 mph 25.3 mph N/A   Clear
7:35 PM 46.4 °F 39.5 °F 30.2 °F 53% 29.76 in 10.0 mi South 17.3 mph - N/A   Clear
7:55 PM 46.4 °F 39.8 °F 30.2 °F 53% 29.74 in 10.0 mi South 16.1 mph 23.0 mph N/A   Clear
8:15 PM 44.6 °F 37.8 °F 30.2 °F 57% 29.74 in 10.0 mi South 15.0 mph - N/A   Clear
8:35 PM 44.6 °F 37.2 °F 32.0 °F 61% 29.72 in 10.0 mi SSW 17.3 mph - N/A   Clear
8:55 PM 44.6 °F 37.2 °F 32.0 °F 61% 29.72 in 10.0 mi SSW 17.3 mph 23.0 mph N/A   Clear
9:15 PM 44.6 °F 36.9 °F 30.2 °F 57% 29.72 in 10.0 mi SSW 18.4 mph 24.2 mph N/A   Clear
9:35 PM 44.6 °F 36.4 °F 30.2 °F 57% 29.71 in 10.0 mi SSW 20.7 mph - N/A   Clear
9:55 PM 44.6 °F 36.6 °F 32.0 °F 61% 29.70 in 10.0 mi SSW 19.6 mph 24.2 mph N/A   Clear
10:15 PM 44.6 °F 36.6 °F 32.0 °F 61% 29.70 in 10.0 mi SSW 19.6 mph 25.3 mph N/A   Clear
10:35 PM 44.6 °F 36.1 °F 32.0 °F 61% 29.68 in 10.0 mi SSW 21.9 mph - N/A   Clear
10:55 PM 44.6 °F 36.4 °F 32.0 °F 61% 29.68 in 10.0 mi SSW 20.7 mph - N/A   Partly Cloudy
11:15 PM 44.6 °F 36.9 °F 32.0 °F 61% 29.66 in 10.0 mi SSW 18.4 mph - N/A   Scattered Clouds
11:35 PM 44.6 °F 36.4 °F 33.8 °F 66% 29.64 in 10.0 mi SSW 20.7 mph - N/A   Clear
11:55 PM 46.4 °F 39.5 °F 33.8 °F 62% 29.64 in 10.0 mi SSW 17.3 mph - N/A   Partly Cloudy